Time;durP1;ratioP1;P1;durP2;ratioP2;P2;SDS_P1;SDS_P2;PMS_P1;PMS_P2;Temp;Humidity;BMP_temperature;BMP_pressure;BME280_temperature;BME280_humidity;BME280_pressure;Samples;Min_cycle;Max_cycle;Signal;HPM_P1;HPM_P2
2023/03/29 05:00:26;;;;;;;2.57;1.60;;;9.00;97.20;;;;;;1694790;29;20180;-64
2023/03/29 05:01:17;;;;;;;1.85;1.60;;;9.00;97.20;;;;;;1694776;29;20212;-64
2023/03/29 05:02:08;;;;;;;2.47;1.70;;;9.00;97.20;;;;;;1694772;29;20238;-64
2023/03/29 05:02:59;;;;;;;2.45;1.90;;;9.00;97.20;;;;;;1694576;29;20583;-64
2023/03/29 05:03:51;;;;;;;2.03;1.77;;;9.00;97.20;;;;;;1694798;29;20195;-63
2023/03/29 05:04:42;;;;;;;3.45;1.50;;;9.00;97.20;;;;;;1694280;29;20219;-64
2023/03/29 05:05:33;;;;;;;2.50;1.83;;;9.00;97.20;;;;;;1694376;29;20211;-63
2023/03/29 05:06:25;;;;;;;2.67;1.85;;;9.00;97.20;;;;;;1694349;29;20682;-64
2023/03/29 05:07:18;;;;;;;2.30;1.45;;;9.00;97.20;;;;;;1694768;29;20203;-64
2023/03/29 05:08:09;;;;;;;1.75;1.65;;;9.00;97.20;;;;;;1695627;29;20215;-64
2023/03/29 05:09:01;;;;;;;3.33;1.42;;;8.90;97.20;;;;;;1701159;29;20195;-64
2023/03/29 05:09:52;;;;;;;1.70;1.55;;;8.90;97.20;;;;;;1701505;29;20211;-66
2023/03/29 05:10:45;;;;;;;1.90;1.47;;;8.90;97.20;;;;;;1701140;29;20242;-64
2023/03/29 05:11:35;;;;;;;1.85;1.40;;;9.00;97.20;;;;;;1701382;29;20277;-64
2023/03/29 05:12:27;;;;;;;2.60;1.60;;;9.00;97.20;;;;;;1701318;29;20200;-63
2023/03/29 05:13:18;;;;;;;2.75;1.73;;;9.00;97.20;;;;;;1701093;29;20214;-64
2023/03/29 05:14:10;;;;;;;1.60;1.37;;;9.00;97.20;;;;;;1700744;29;20201;-64
2023/03/29 05:15:01;;;;;;;1.83;1.10;;;9.00;97.20;;;;;;1701293;29;20206;-63
2023/03/29 05:15:55;;;;;;;3.47;1.10;;;9.00;97.20;;;;;;1701271;29;20207;-64
2023/03/29 05:16:46;;;;;;;2.28;1.50;;;9.00;97.20;;;;;;1701328;29;20650;-64
2023/03/29 05:17:38;;;;;;;2.20;1.10;;;9.00;97.20;;;;;;1701269;29;20623;-64
2023/03/29 05:18:29;;;;;;;1.48;1.38;;;9.00;97.20;;;;;;1701304;29;21016;-65
2023/03/29 05:19:21;;;;;;;1.88;1.40;;;9.00;97.20;;;;;;1701268;29;20218;-62
2023/03/29 05:20:12;;;;;;;2.28;1.35;;;9.00;97.20;;;;;;1701235;29;20351;-65
2023/03/29 05:21:05;;;;;;;2.78;1.55;;;9.00;97.20;;;;;;1699152;29;20195;-62
2023/03/29 05:21:56;;;;;;;1.75;1.30;;;9.00;97.20;;;;;;1697641;29;20616;-62
2023/03/29 05:22:48;;;;;;;3.08;1.50;;;9.00;97.20;;;;;;1700226;29;20205;-63
2023/03/29 05:23:39;;;;;;;1.73;1.35;;;9.00;97.20;;;;;;1701161;29;20203;-64
2023/03/29 05:24:30;;;;;;;1.73;1.63;;;9.00;97.20;;;;;;1701045;29;20208;-62
2023/03/29 05:25:21;;;;;;;3.33;1.75;;;9.00;97.20;;;;;;1701105;29;20601;-63
2023/03/29 05:26:14;;;;;;;2.63;1.45;;;9.00;97.20;;;;;;1701318;29;20242;-63
2023/03/29 05:27:04;;;;;;;1.67;1.50;;;9.00;97.20;;;;;;1700960;29;20207;-62
2023/03/29 05:27:57;;;;;;;1.93;1.63;;;9.00;97.20;;;;;;1701177;29;20207;-63
2023/03/29 05:28:48;;;;;;;2.40;1.50;;;9.00;97.20;;;;;;1701188;29;20210;-62
2023/03/29 05:29:40;;;;;;;2.22;1.65;;;9.00;97.20;;;;;;1701181;29;20207;-63
2023/03/29 05:30:31;;;;;;;2.03;1.38;;;9.00;97.20;;;;;;1701102;29;20247;-63
2023/03/29 05:31:24;;;;;;;1.40;1.30;;;9.00;97.20;;;;;;1701171;29;20203;-63
2023/03/29 05:32:15;;;;;;;2.38;1.58;;;9.00;97.20;;;;;;1701162;29;20211;-62
2023/03/29 05:33:07;;;;;;;5.97;1.43;;;9.00;97.20;;;;;;1700709;29;20200;-63
2023/03/29 05:33:57;;;;;;;2.13;1.33;;;9.10;97.20;;;;;;1700690;29;20604;-63
2023/03/29 05:34:49;;;;;;;1.63;1.53;;;9.10;97.20;;;;;;1701262;29;20218;-63
2023/03/29 05:35:40;;;;;;;3.42;1.70;;;9.10;97.20;;;;;;1701033;29;20234;-63
2023/03/29 05:36:31;;;;;;;1.70;1.40;;;9.10;97.20;;;;;;1701188;29;20211;-63
2023/03/29 05:37:22;;;;;;;1.75;1.58;;;9.10;97.20;;;;;;1701186;29;20242;-63
2023/03/29 05:38:14;;;;;;;3.00;1.40;;;9.10;97.20;;;;;;1701258;29;20207;-62
2023/03/29 05:39:06;;;;;;;2.85;1.55;;;9.10;97.20;;;;;;1701182;29;20208;-63
2023/03/29 05:39:57;;;;;;;2.05;1.55;;;9.10;97.20;;;;;;1701059;29;20548;-63
2023/03/29 05:40:50;;;;;;;5.38;1.60;;;9.10;97.20;;;;;;1701117;29;20251;-62
2023/03/29 05:41:41;;;;;;;1.90;1.35;;;9.10;97.20;;;;;;1701120;29;20210;-63
2023/03/29 05:42:32;;;;;;;1.80;1.38;;;9.10;97.20;;;;;;1700530;29;20227;-62
2023/03/29 05:43:24;;;;;;;2.50;1.90;;;9.10;97.20;;;;;;1700992;29;20213;-63
2023/03/29 05:44:15;;;;;;;4.15;1.60;;;9.20;97.20;;;;;;1700331;29;20357;-63
2023/03/29 05:45:09;;;;;;;4.13;1.35;;;9.20;97.20;;;;;;1694684;29;20782;-63
2023/03/29 05:46:00;;;;;;;1.60;1.50;;;9.20;97.20;;;;;;1698649;29;20672;-63
2023/03/29 05:46:53;;;;;;;2.30;1.57;;;9.20;97.20;;;;;;1700997;29;20207;-63
2023/03/29 05:47:43;;;;;;;2.75;1.80;;;9.20;97.20;;;;;;1701108;29;20669;-63
2023/03/29 05:48:36;;;;;;;2.60;1.50;;;9.20;97.20;;;;;;1701133;29;20665;-62
2023/03/29 05:49:26;;;;;;;2.20;1.52;;;9.20;97.20;;;;;;1701031;29;20598;-63
2023/03/29 05:50:18;;;;;;;2.60;1.70;;;9.20;97.20;;;;;;1698913;29;20294;-62
2023/03/29 05:51:09;;;;;;;1.40;1.30;;;9.20;97.20;;;;;;1694244;29;20630;-63
2023/03/29 05:52:02;;;;;;;1.70;1.60;;;9.30;97.20;;;;;;1693979;29;20203;-62
2023/03/29 05:52:53;;;;;;;3.25;1.50;;;9.30;97.20;;;;;;1696729;29;20455;-63
2023/03/29 05:53:45;;;;;;;2.10;1.67;;;9.30;97.20;;;;;;1700427;29;20227;-62
2023/03/29 05:54:36;;;;;;;2.53;1.75;;;9.30;97.20;;;;;;1700330;29;20210;-63
2023/03/29 05:55:27;;;;;;;2.90;1.90;;;9.30;97.20;;;;;;1697514;29;20274;-63
2023/03/29 05:56:18;;;;;;;2.20;1.92;;;9.30;97.20;;;;;;1694455;29;20204;-66
2023/03/29 05:57:10;;;;;;;2.58;1.95;;;9.30;97.20;;;;;;1695169;29;20996;-63
2023/03/29 05:58:01;;;;;;;2.80;1.77;;;9.30;97.20;;;;;;1700654;29;20690;-63
2023/03/29 05:58:54;;;;;;;2.70;2.07;;;9.30;97.20;;;;;;1699132;29;20222;-62
2023/03/29 05:59:46;;;;;;;4.50;2.00;;;9.30;97.20;;;;;;1693964;29;20204;-63
2023/03/29 06:00:38;;;;;;;4.05;2.13;;;9.40;97.20;;;;;;1694046;29;20220;-62
2023/03/29 06:01:31;;;;;;;4.00;1.70;;;9.40;97.20;;;;;;1695961;29;20238;-63
2023/03/29 06:02:25;;;;;;;4.70;2.40;;;9.40;97.20;;;;;;1697665;29;20645;-62
2023/03/29 06:03:18;;;;;;;2.40;1.95;;;9.40;97.20;;;;;;1697378;29;20208;-64
2023/03/29 06:04:11;;;;;;;4.90;1.95;;;9.40;97.20;;;;;;1696186;29;20210;-62
2023/03/29 06:05:01;;;;;;;2.28;2.08;;;9.40;97.20;;;;;;1697110;29;20219;-63
2023/03/29 06:05:58;;;;;;;2.20;2.00;;;9.40;97.20;;;;;;1698807;29;20278;-63
2023/03/29 06:06:49;;;;;;;2.30;1.80;;;9.40;97.20;;;;;;1700952;29;20207;-63
2023/03/29 06:07:41;;;;;;;2.90;1.70;;;9.40;97.20;;;;;;1701002;29;20214;-63
2023/03/29 06:08:33;;;;;;;1.80;1.70;;;9.40;97.20;;;;;;1700766;29;20670;-63
2023/03/29 06:09:25;;;;;;;1.80;1.70;;;9.50;97.20;;;;;;1700889;29;20209;-63
2023/03/29 06:10:16;;;;;;;2.22;1.95;;;9.50;97.20;;;;;;1700812;29;20253;-62
2023/03/29 06:11:10;;;;;;;2.53;1.60;;;9.50;97.20;;;;;;1701029;29;20290;-63
2023/03/29 06:12:01;;;;;;;1.77;1.40;;;9.50;97.20;;;;;;1700919;29;20270;-63
2023/03/29 06:12:53;;;;;;;3.63;1.70;;;9.50;97.20;;;;;;1700768;29;20207;-63
2023/03/29 06:13:44;;;;;;;1.90;1.80;;;9.60;97.20;;;;;;1700885;29;20207;-63
2023/03/29 06:14:36;;;;;;;3.50;2.10;;;9.60;97.20;;;;;;1700452;29;20218;-62
2023/03/29 06:15:26;;;;;;;2.28;1.88;;;9.60;97.20;;;;;;1700815;29;20265;-63
2023/03/29 06:16:18;;;;;;;2.50;2.10;;;9.70;97.20;;;;;;1700862;29;20254;-64
2023/03/29 06:17:09;;;;;;;2.72;2.20;;;9.70;97.20;;;;;;1700619;29;20207;-64
2023/03/29 06:18:03;;;;;;;2.27;1.60;;;9.70;97.20;;;;;;1700570;29;20203;-64
2023/03/29 06:18:54;;;;;;;2.17;1.60;;;9.80;97.20;;;;;;1700754;29;20455;-64
2023/03/29 06:19:45;;;;;;;2.57;1.80;;;9.80;97.20;;;;;;1700987;29;20203;-63
2023/03/29 06:20:36;;;;;;;2.63;1.42;;;9.90;97.20;;;;;;1700848;29;20234;-63
2023/03/29 06:21:29;;;;;;;2.00;1.67;;;9.90;97.20;;;;;;1701026;29;20207;-63
2023/03/29 06:22:20;;;;;;;2.60;1.70;;;10.00;97.20;;;;;;1700870;29;20207;-64
2023/03/29 06:23:12;;;;;;;1.97;1.33;;;10.00;97.20;;;;;;1700609;29;20207;-63
2023/03/29 06:24:03;;;;;;;2.80;1.58;;;10.10;97.20;;;;;;1699803;29;20478;-63
2023/03/29 06:24:55;;;;;;;1.77;1.45;;;10.10;97.20;;;;;;1700461;29;20294;-64
2023/03/29 06:25:46;;;;;;;3.78;1.85;;;10.10;97.20;;;;;;1700840;29;20218;-64
2023/03/29 06:26:37;;;;;;;2.43;2.23;;;10.20;97.20;;;;;;1700548;29;20214;-63
2023/03/29 06:27:28;;;;;;;2.13;1.92;;;10.20;97.20;;;;;;1700961;29;20968;-63
2023/03/29 06:28:21;;;;;;;3.93;2.20;;;10.30;97.20;;;;;;1700857;29;20580;-63
2023/03/29 06:29:11;;;;;;;2.85;2.13;;;10.30;97.20;;;;;;1700974;29;20455;-64
2023/03/29 06:30:04;;;;;;;3.83;1.87;;;10.30;97.20;;;;;;1700659;29;20207;-62
2023/03/29 06:31:00;;;;;;;3.33;1.95;;;10.30;97.20;;;;;;1694075;29;20484;-63
2023/03/29 06:31:55;;;;;;;2.20;1.77;;;10.30;97.20;;;;;;1694394;29;20211;-63
2023/03/29 06:32:45;;;;;;;4.13;1.60;;;10.40;97.20;;;;;;1694059;29;20204;-63
2023/03/29 06:33:39;;;;;;;1.67;1.57;;;10.40;97.20;;;;;;1694284;29;20239;-63
2023/03/29 06:34:30;;;;;;;2.22;1.63;;;10.40;97.20;;;;;;1693803;29;20215;-64
2023/03/29 06:35:22;;;;;;;2.30;1.40;;;10.40;97.20;;;;;;1694090;29;20208;-62
2023/03/29 06:36:14;;;;;;;1.60;1.40;;;10.40;97.20;;;;;;1694282;29;20845;-64
2023/03/29 06:37:07;;;;;;;1.90;1.80;;;10.40;97.20;;;;;;1700087;29;20203;-63
2023/03/29 06:37:58;;;;;;;2.05;1.75;;;10.40;97.20;;;;;;1700548;29;20210;-64
2023/03/29 06:38:49;;;;;;;2.00;1.43;;;10.40;97.20;;;;;;1700182;29;20675;-64
2023/03/29 06:39:40;;;;;;;1.80;1.60;;;10.40;97.20;;;;;;1700271;29;20207;-64
2023/03/29 06:40:32;;;;;;;3.33;1.70;;;10.40;97.20;;;;;;1699964;29;20231;-63
2023/03/29 06:41:23;;;;;;;3.75;1.60;;;10.40;97.20;;;;;;1700724;29;20763;-63
2023/03/29 06:42:15;;;;;;;1.83;1.40;;;10.40;97.20;;;;;;1700848;29;20691;-63
2023/03/29 06:43:06;;;;;;;2.30;1.40;;;10.50;97.20;;;;;;1700521;29;20223;-63
2023/03/29 06:43:57;;;;;;;2.72;1.45;;;10.50;97.20;;;;;;1700210;29;20199;-63
2023/03/29 06:44:49;;;;;;;4.50;1.63;;;10.50;97.20;;;;;;1700515;29;20203;-63
2023/03/29 06:45:40;;;;;;;2.67;1.75;;;10.50;97.20;;;;;;1700063;29;20211;-64
2023/03/29 06:46:31;;;;;;;2.70;1.70;;;10.50;97.20;;;;;;1700550;29;20235;-63
2023/03/29 06:47:29;;;;;;;3.60;1.70;;;10.60;97.20;;;;;;1700754;29;20234;-63
2023/03/29 06:48:20;;;;;;;4.32;1.50;;;10.60;97.20;;;;;;1700735;29;20346;-64
2023/03/29 06:49:13;;;;;;;4.10;1.80;;;10.70;97.20;;;;;;1700816;29;20215;-64
2023/03/29 06:50:04;;;;;;;1.73;1.30;;;10.70;97.20;;;;;;1700707;29;20669;-63
2023/03/29 06:50:56;;;;;;;1.92;1.60;;;10.70;97.20;;;;;;1700614;29;20223;-63
2023/03/29 06:51:47;;;;;;;3.10;1.92;;;10.70;97.20;;;;;;1700842;29;20234;-64
2023/03/29 06:52:39;;;;;;;1.63;1.53;;;10.70;97.20;;;;;;1700503;29;20207;-63
2023/03/29 06:53:30;;;;;;;3.08;1.65;;;10.70;97.20;;;;;;1700744;29;20474;-64
2023/03/29 06:54:21;;;;;;;1.77;1.47;;;10.70;97.20;;;;;;1700139;29;20203;-64
2023/03/29 06:55:12;;;;;;;3.40;1.60;;;10.70;97.20;;;;;;1700577;29;20439;-64
2023/03/29 06:56:07;;;;;;;2.05;1.80;;;10.70;97.20;;;;;;1700687;29;20199;-63
2023/03/29 06:56:59;;;;;;;2.80;1.60;;;10.70;97.20;;;;;;1700325;29;20575;-63
2023/03/29 06:57:51;;;;;;;3.28;1.98;;;10.70;97.20;;;;;;1700715;29;20289;-64
2023/03/29 06:58:43;;;;;;;5.15;2.05;;;10.70;97.20;;;;;;1700743;29;20665;-63
2023/03/29 06:59:34;;;;;;;2.97;1.50;;;10.60;97.20;;;;;;1700741;29;20207;-64
2023/03/29 07:00:29;;;;;;;1.90;1.70;;;10.70;97.20;;;;;;1700355;29;20234;-64
2023/03/29 07:01:20;;;;;;;3.88;1.90;;;10.70;97.20;;;;;;1700634;29;20214;-64
2023/03/29 07:02:12;;;;;;;1.77;1.65;;;10.60;97.20;;;;;;1700848;29;20207;-63
2023/03/29 07:03:05;;;;;;;2.10;1.42;;;10.60;97.20;;;;;;1700306;29;20270;-63
2023/03/29 07:03:59;;;;;;;2.83;2.20;;;10.60;97.20;;;;;;1700677;29;20213;-63
2023/03/29 07:04:51;;;;;;;1.95;1.40;;;10.60;97.20;;;;;;1700695;29;20611;-64
2023/03/29 07:05:43;;;;;;;3.97;1.73;;;10.60;97.20;;;;;;1700470;29;20207;-63
2023/03/29 07:06:35;;;;;;;3.15;1.90;;;10.60;97.20;;;;;;1700366;29;20216;-63
2023/03/29 07:07:36;;;;;;;2.40;1.50;;;10.60;97.20;;;;;;1700668;29;20616;-63
2023/03/29 07:08:30;;;;;;;3.28;1.52;;;10.70;97.20;;;;;;1700771;29;20290;-64
2023/03/29 07:09:20;;;;;;;6.50;2.00;;;10.70;97.20;;;;;;1700603;29;20669;-64
2023/03/29 07:10:12;;;;;;;6.30;2.00;;;10.70;97.20;;;;;;1700611;29;20691;-65
2023/03/29 07:11:04;;;;;;;1.80;1.50;;;10.70;97.20;;;;;;1700556;29;20214;-63
2023/03/29 07:11:55;;;;;;;4.70;1.52;;;10.80;97.20;;;;;;1700610;29;20207;-64
2023/03/29 07:12:47;;;;;;;2.17;1.65;;;10.70;97.20;;;;;;1700434;29;20339;-63
2023/03/29 07:13:39;;;;;;;1.92;1.40;;;10.80;97.20;;;;;;1700612;29;20207;-63
2023/03/29 07:14:30;;;;;;;2.55;1.40;;;10.80;97.20;;;;;;1700198;29;20230;-64
2023/03/29 07:15:21;;;;;;;4.10;1.70;;;10.80;97.20;;;;;;1700406;29;20207;-64
2023/03/29 07:16:13;;;;;;;4.20;2.13;;;10.80;97.20;;;;;;1700588;29;20230;-63
2023/03/29 07:17:04;;;;;;;9.27;2.15;;;10.80;97.20;;;;;;1700263;29;20199;-62
2023/03/29 07:17:56;;;;;;;3.92;1.80;;;10.90;97.20;;;;;;1700087;29;20235;-64
2023/03/29 07:18:47;;;;;;;6.25;1.80;;;10.90;97.20;;;;;;1700356;29;20199;-64
2023/03/29 07:19:39;;;;;;;6.27;1.70;;;10.90;97.20;;;;;;1700605;29;20391;-63
2023/03/29 07:20:32;;;;;;;3.85;1.90;;;11.00;97.20;;;;;;1700517;29;20455;-64
2023/03/29 07:21:24;;;;;;;13.93;2.03;;;11.00;97.20;;;;;;1700657;29;20226;-63
2023/03/29 07:22:15;;;;;;;6.50;1.95;;;11.00;97.20;;;;;;1700611;29;20689;-63
2023/03/29 07:23:08;;;;;;;3.13;1.30;;;11.10;97.20;;;;;;1700270;29;20593;-63
2023/03/29 07:23:59;;;;;;;3.55;1.67;;;11.10;97.20;;;;;;1699982;29;20454;-64
2023/03/29 07:24:51;;;;;;;23.83;3.67;;;11.10;97.20;;;;;;1700690;29;20199;-64
2023/03/29 07:25:41;;;;;;;11.18;2.95;;;11.20;97.20;;;;;;1700324;29;20211;-63
2023/03/29 07:26:33;;;;;;;9.97;2.37;;;11.20;97.20;;;;;;1700280;29;20291;-64
2023/03/29 07:27:24;;;;;;;4.18;1.52;;;11.30;97.20;;;;;;1700588;29;20208;-64
2023/03/29 07:28:16;;;;;;;2.90;1.50;;;11.30;97.20;;;;;;1700585;29;20625;-64
2023/03/29 07:29:08;;;;;;;15.65;2.90;;;11.30;97.20;;;;;;1700054;29;20207;-64
2023/03/29 07:29:59;;;;;;;6.63;1.80;;;11.40;97.20;;;;;;1700516;29;20644;-62
2023/03/29 07:30:50;;;;;;;21.33;3.58;;;11.40;97.20;;;;;;1700465;29;20244;-64
2023/03/29 07:31:43;;;;;;;24.93;4.50;;;11.50;97.20;;;;;;1700505;29;20210;-64
2023/03/29 07:32:35;;;;;;;4.90;1.60;;;11.50;97.20;;;;;;1700415;29;20207;-64
2023/03/29 07:33:26;;;;;;;9.77;2.80;;;11.60;97.20;;;;;;1700473;29;20245;-63
2023/03/29 07:34:17;;;;;;;3.85;1.50;;;11.60;97.20;;;;;;1700031;29;20249;-64
2023/03/29 07:35:11;;;;;;;3.50;1.40;;;11.60;97.20;;;;;;1700479;29;20203;-63
2023/03/29 07:36:03;;;;;;;9.85;2.05;;;11.70;97.20;;;;;;1700606;29;20211;-63
2023/03/29 07:36:56;;;;;;;10.95;2.10;;;11.70;97.20;;;;;;1700316;29;20203;-64
2023/03/29 07:37:47;;;;;;;4.10;1.83;;;11.70;97.20;;;;;;1700540;29;20207;-63
2023/03/29 07:38:39;;;;;;;3.05;1.80;;;11.80;97.20;;;;;;1700486;29;20573;-63
2023/03/29 07:39:30;;;;;;;2.65;1.70;;;11.80;97.20;;;;;;1700537;29;20203;-64
2023/03/29 07:40:22;;;;;;;4.85;1.80;;;11.80;97.20;;;;;;1700383;29;20543;-64
2023/03/29 07:41:14;;;;;;;6.20;2.10;;;11.80;97.20;;;;;;1700559;29;20749;-64
2023/03/29 07:42:05;;;;;;;4.38;1.63;;;11.80;97.20;;;;;;1700486;29;20300;-63
2023/03/29 07:42:57;;;;;;;2.13;1.70;;;11.80;97.20;;;;;;1700232;29;20203;-64
2023/03/29 07:43:50;;;;;;;6.97;2.70;;;11.80;97.20;;;;;;1700549;29;20211;-64
2023/03/29 07:44:42;;;;;;;2.30;2.10;;;11.80;97.20;;;;;;1699955;29;20222;-63
2023/03/29 07:45:34;;;;;;;2.47;1.90;;;11.90;97.20;;;;;;1700476;29;20218;-63
2023/03/29 07:46:25;;;;;;;3.17;2.03;;;11.80;97.20;;;;;;1700472;29;20665;-64
2023/03/29 07:47:16;;;;;;;5.20;2.00;;;11.80;97.20;;;;;;1700319;29;20557;-64
2023/03/29 07:48:08;;;;;;;5.20;2.08;;;11.80;97.20;;;;;;1700434;29;20670;-64
2023/03/29 07:48:59;;;;;;;3.63;2.03;;;11.80;97.20;;;;;;1700502;29;20480;-64
2023/03/29 07:49:51;;;;;;;4.17;1.93;;;11.80;97.20;;;;;;1700575;29;20662;-63
2023/03/29 07:50:43;;;;;;;2.85;2.60;;;11.80;97.20;;;;;;1700450;29;20234;-62
2023/03/29 07:51:35;;;;;;;3.28;1.95;;;11.80;97.20;;;;;;1700461;29;20579;-63
2023/03/29 07:52:28;;;;;;;3.25;1.77;;;11.80;97.20;;;;;;1700512;29;20207;-64
2023/03/29 07:53:20;;;;;;;9.63;2.42;;;11.80;97.20;;;;;;1700220;29;20199;-63
2023/03/29 07:54:11;;;;;;;3.17;1.60;;;11.80;97.20;;;;;;1699929;29;20226;-64
2023/03/29 07:55:03;;;;;;;1.83;1.50;;;11.80;97.20;;;;;;1700399;29;20546;-63
2023/03/29 07:55:55;;;;;;;1.88;1.38;;;11.90;97.20;;;;;;1700385;29;20296;-64
2023/03/29 07:56:46;;;;;;;4.15;1.98;;;11.90;97.20;;;;;;1700244;29;20227;-64
2023/03/29 07:57:38;;;;;;;4.00;1.77;;;11.90;97.20;;;;;;1700380;29;20236;-63
2023/03/29 07:58:29;;;;;;;2.13;1.88;;;11.90;97.20;;;;;;1700472;29;20226;-64
2023/03/29 07:59:21;;;;;;;2.37;1.60;;;11.90;97.20;;;;;;1700536;29;20213;-63
2023/03/29 08:00:14;;;;;;;3.42;1.90;;;12.00;97.20;;;;;;1700368;29;20906;-63
2023/03/29 08:01:07;;;;;;;2.45;1.52;;;12.00;97.20;;;;;;1700478;29;20605;-64
2023/03/29 08:01:58;;;;;;;6.60;2.10;;;12.10;97.20;;;;;;1700457;29;20211;-63
2023/03/29 08:02:51;;;;;;;2.70;1.60;;;12.10;97.20;;;;;;1700409;29;20203;-66
2023/03/29 08:03:42;;;;;;;2.70;1.40;;;12.10;97.20;;;;;;1700432;29;20254;-65
2023/03/29 08:04:33;;;;;;;2.63;1.53;;;12.20;97.20;;;;;;1700010;29;20207;-65
2023/03/29 08:05:24;;;;;;;6.18;1.65;;;12.20;97.20;;;;;;1700377;29;20815;-65
2023/03/29 08:06:16;;;;;;;2.22;1.30;;;12.20;97.20;;;;;;1700479;29;20204;-66
2023/03/29 08:07:08;;;;;;;4.10;1.80;;;12.20;97.20;;;;;;1700285;29;20230;-66
2023/03/29 08:08:00;;;;;;;3.30;1.98;;;12.30;97.20;;;;;;1700511;29;20218;-66
2023/03/29 08:08:51;;;;;;;2.65;1.40;;;12.30;97.20;;;;;;1700515;29;20725;-66
2023/03/29 08:09:43;;;;;;;4.03;1.90;;;12.30;97.20;;;;;;1700326;29;20572;-64
2023/03/29 08:10:37;;;;;;;2.50;1.55;;;12.30;97.20;;;;;;1700324;29;20223;-66
2023/03/29 08:11:28;;;;;;;4.25;1.52;;;12.30;97.20;;;;;;1700219;29;20262;-66
2023/03/29 08:12:20;;;;;;;8.48;1.80;;;12.30;97.20;;;;;;1700400;29;20204;-66
2023/03/29 08:13:12;;;;;;;3.17;1.70;;;12.30;97.20;;;;;;1700265;29;20227;-66
2023/03/29 08:14:04;;;;;;;3.10;1.50;;;12.30;97.20;;;;;;1699963;29;20734;-66
2023/03/29 08:14:54;;;;;;;2.85;1.45;;;12.30;97.20;;;;;;1700455;29;20203;-65
2023/03/29 08:15:47;;;;;;;2.77;1.93;;;12.40;97.20;;;;;;1700340;29;20203;-66
2023/03/29 08:16:38;;;;;;;3.20;1.88;;;12.40;97.20;;;;;;1700395;29;20206;-65
2023/03/29 08:17:29;;;;;;;3.57;1.57;;;12.40;97.20;;;;;;1700486;29;20207;-63
2023/03/29 08:18:20;;;;;;;2.03;1.60;;;12.40;97.20;;;;;;1700388;29;20207;-63
2023/03/29 08:19:13;;;;;;;1.90;1.33;;;12.40;97.20;;;;;;1700510;29;20207;-63
2023/03/29 08:20:06;;;;;;;2.10;1.35;;;12.40;97.20;;;;;;1700364;29;20227;-64
2023/03/29 08:20:57;;;;;;;2.30;1.70;;;12.40;97.20;;;;;;1700449;29;20662;-63
2023/03/29 08:21:48;;;;;;;5.95;1.42;;;12.40;97.20;;;;;;1700108;29;20263;-64
2023/03/29 08:22:42;;;;;;;3.00;1.93;;;12.40;97.20;;;;;;1700154;29;20260;-64
2023/03/29 08:23:32;;;;;;;1.73;1.48;;;12.40;97.20;;;;;;1700424;29;20238;-63
2023/03/29 08:24:25;;;;;;;2.37;1.70;;;12.40;97.20;;;;;;1699796;29;20211;-64
2023/03/29 08:25:16;;;;;;;1.90;1.58;;;12.50;97.20;;;;;;1700238;29;20688;-64
2023/03/29 08:26:08;;;;;;;3.70;1.60;;;12.50;97.20;;;;;;1700466;29;20199;-64
2023/03/29 08:26:59;;;;;;;2.40;1.60;;;12.50;97.20;;;;;;1700527;29;20346;-64
2023/03/29 08:27:51;;;;;;;1.83;1.40;;;12.50;97.20;;;;;;1700427;29;20250;-64
2023/03/29 08:28:42;;;;;;;2.20;1.40;;;12.40;97.20;;;;;;1700378;29;20454;-64
2023/03/29 08:29:34;;;;;;;3.42;1.40;;;12.40;97.20;;;;;;1700398;29;20236;-63
2023/03/29 08:30:25;;;;;;;2.85;1.70;;;12.40;97.20;;;;;;1700225;29;20595;-65
2023/03/29 08:31:17;;;;;;;2.77;1.50;;;12.40;97.20;;;;;;1700140;29;20567;-65
2023/03/29 08:32:07;;;;;;;3.75;1.60;;;12.40;97.20;;;;;;1700405;29;20207;-66
2023/03/29 08:33:00;;;;;;;1.93;1.40;;;12.30;97.20;;;;;;1700113;29;20203;-66
2023/03/29 08:33:50;;;;;;;1.92;1.60;;;12.30;97.20;;;;;;1700425;29;20203;-66
2023/03/29 08:34:42;;;;;;;1.83;1.30;;;12.30;97.20;;;;;;1699656;29;20728;-65
2023/03/29 08:35:34;;;;;;;1.80;1.55;;;12.30;97.20;;;;;;1700309;29;20553;-66
2023/03/29 08:36:25;;;;;;;9.25;2.70;;;12.30;97.20;;;;;;1700350;29;20234;-65
2023/03/29 08:37:17;;;;;;;5.47;2.20;;;12.30;97.20;;;;;;1700335;29;20257;-66
2023/03/29 08:38:10;;;;;;;6.15;1.88;;;12.30;97.20;;;;;;1700336;29;20451;-66
2023/03/29 08:39:02;;;;;;;2.97;1.95;;;12.30;97.20;;;;;;1700296;29;20207;-66
2023/03/29 08:39:52;;;;;;;3.53;1.80;;;12.40;97.20;;;;;;1700417;29;20208;-65
2023/03/29 08:40:47;;;;;;;1.87;1.50;;;12.40;97.20;;;;;;1700317;29;20254;-65
2023/03/29 08:41:51;;;;;;;3.05;1.75;;;12.40;97.20;;;;;;1701044;29;20235;-65
2023/03/29 08:43:02;;;;;;;1.48;1.38;;;12.40;97.20;;;;;;1701373;29;20560;-65
2023/03/29 08:44:09;;;;;;;1.83;1.70;;;12.40;97.20;;;;;;1701435;29;20227;-66
2023/03/29 08:45:25;;;;;;;3.35;1.60;;;12.40;97.20;;;;;;1701184;29;20207;-65
2023/03/29 08:46:30;;;;;;;2.22;1.63;;;12.50;97.20;;;;;;1701441;29;20247;-66
2023/03/29 08:47:28;;;;;;;5.20;1.80;;;12.50;97.20;;;;;;1701489;29;20215;-66
2023/03/29 08:48:27;;;;;;;2.13;1.92;;;12.50;97.20;;;;;;1701508;29;20234;-65
2023/03/29 08:49:19;;;;;;;11.32;2.10;;;12.60;97.20;;;;;;1701523;29;20701;-65
2023/03/29 08:50:12;;;;;;;2.78;1.80;;;12.60;97.20;;;;;;1701503;29;20195;-65
2023/03/29 08:51:10;;;;;;;2.90;1.75;;;12.70;97.20;;;;;;1701484;29;20211;-66
2023/03/29 08:52:05;;;;;;;3.15;1.92;;;12.70;97.20;;;;;;1701403;29;20207;-66
2023/03/29 08:53:01;;;;;;;2.83;1.45;;;12.80;97.20;;;;;;1701286;29;20692;-65
2023/03/29 08:53:59;;;;;;;1.60;1.50;;;12.80;97.20;;;;;;1701344;29;20573;-65
2023/03/29 08:54:54;;;;;;;2.83;1.50;;;12.80;97.20;;;;;;1701201;29;20199;-66
2023/03/29 08:55:48;;;;;;;1.60;1.50;;;12.80;97.20;;;;;;1701372;29;20234;-66
2023/03/29 08:56:42;;;;;;;2.80;1.52;;;12.80;97.20;;;;;;1701410;29;20585;-66
2023/03/29 08:57:40;;;;;;;3.30;1.60;;;12.80;97.20;;;;;;1701391;29;20206;-66
2023/03/29 08:58:34;;;;;;;1.95;1.23;;;12.80;97.20;;;;;;1701530;29;20573;-66
2023/03/29 08:59:29;;;;;;;2.13;1.65;;;12.90;97.20;;;;;;1701360;29;20242;-63
2023/03/29 09:00:25;;;;;;;2.58;1.60;;;12.90;97.20;;;;;;1701376;29;20682;-65
2023/03/29 09:01:17;;;;;;;1.90;1.50;;;12.90;97.20;;;;;;1701263;29;20235;-65
2023/03/29 09:02:16;;;;;;;2.53;1.85;;;12.90;97.20;;;;;;1701350;29;20203;-66
2023/03/29 09:03:14;;;;;;;3.08;2.10;;;13.00;97.20;;;;;;1701255;29;20696;-66
2023/03/29 09:04:08;;;;;;;2.72;2.00;;;13.00;97.20;;;;;;1700881;29;20263;-66
2023/03/29 09:05:06;;;;;;;3.90;2.60;;;13.00;97.20;;;;;;1701356;29;20199;-66
2023/03/29 09:05:58;;;;;;;3.05;2.40;;;13.00;97.20;;;;;;1701289;29;20208;-66
2023/03/29 09:06:51;;;;;;;5.30;2.60;;;13.00;97.20;;;;;;1701500;29;20214;-64
2023/03/29 09:07:41;;;;;;;3.30;2.40;;;13.00;97.20;;;;;;1701319;29;20226;-64
2023/03/29 09:08:38;;;;;;;4.83;2.17;;;13.00;97.20;;;;;;1701440;29;20282;-63
2023/03/29 09:09:32;;;;;;;2.67;1.70;;;13.00;97.20;;;;;;1701335;29;20218;-63
2023/03/29 09:10:35;;;;;;;6.28;2.20;;;13.10;97.20;;;;;;1701331;29;20207;-64
2023/03/29 09:11:45;;;;;;;1.50;1.40;;;13.10;97.20;;;;;;1701135;29;20211;-64
2023/03/29 09:12:49;;;;;;;2.10;1.65;;;13.20;97.20;;;;;;1701095;29;20670;-64
2023/03/29 09:13:53;;;;;;;2.45;1.50;;;13.30;97.20;;;;;;1701348;29;20674;-64
2023/03/29 09:15:08;;;;;;;4.43;1.85;;;13.30;97.20;;;;;;1700793;29;20234;-65
2023/03/29 09:16:04;;;;;;;4.07;1.40;;;13.40;97.20;;;;;;1701288;29;20258;-65
2023/03/29 09:17:03;;;;;;;2.38;1.75;;;13.40;97.20;;;;;;1701412;29;20413;-66
2023/03/29 09:18:03;;;;;;;4.10;1.80;;;13.50;97.20;;;;;;1701373;29;20223;-66
2023/03/29 09:19:05;;;;;;;3.70;1.70;;;13.50;97.20;;;;;;1701391;29;20250;-65
2023/03/29 09:20:05;;;;;;;2.45;1.52;;;13.60;97.20;;;;;;1701392;29;20203;-67
2023/03/29 09:21:00;;;;;;;2.08;1.40;;;13.60;97.20;;;;;;1701191;29;20228;-64
2023/03/29 09:22:00;;;;;;;1.92;1.30;;;13.60;97.20;;;;;;1700947;29;20195;-64
2023/03/29 09:23:09;;;;;;;2.92;1.63;;;13.60;97.20;;;;;;1701089;29;20734;-64
2023/03/29 09:24:20;;;;;;;2.65;1.42;;;13.70;97.20;;;;;;1700463;29;20231;-64
2023/03/29 09:25:22;;;;;;;2.20;1.50;;;13.70;97.20;;;;;;1701294;29;20606;-63
2023/03/29 09:26:21;;;;;;;1.73;1.40;;;13.70;97.20;;;;;;1701260;29;20218;-63
2023/03/29 09:27:20;;;;;;;2.88;1.50;;;13.80;97.20;;;;;;1701343;29;20262;-64
2023/03/29 09:28:17;;;;;;;3.85;1.40;;;13.90;97.20;;;;;;1701436;29;20204;-64
2023/03/29 09:29:25;;;;;;;2.67;1.30;;;14.00;97.20;;;;;;1701384;29;20575;-63
2023/03/29 09:30:24;;;;;;;2.13;1.52;;;14.10;97.20;;;;;;1701122;29;20239;-63
2023/03/29 09:31:21;;;;;;;3.65;1.38;;;14.30;97.20;;;;;;1701348;29;20274;-65
2023/03/29 09:32:19;;;;;;;2.80;1.60;;;14.40;97.20;;;;;;1700883;29;20208;-64
2023/03/29 09:33:18;;;;;;;1.92;1.60;;;14.40;97.20;;;;;;1701237;29;20618;-63
2023/03/29 09:34:12;;;;;;;1.70;1.50;;;14.50;97.20;;;;;;1700806;29;20211;-64
2023/03/29 09:35:17;;;;;;;2.70;1.48;;;14.60;97.20;;;;;;1701164;29;20715;-63
2023/03/29 09:36:16;;;;;;;2.05;1.70;;;14.80;97.20;;;;;;1701303;29;20249;-63
2023/03/29 09:37:11;;;;;;;2.70;1.50;;;14.80;97.20;;;;;;1701266;29;20243;-64
2023/03/29 09:38:08;;;;;;;3.05;1.38;;;14.90;97.20;;;;;;1701187;29;20273;-64